Buoy 52594

sailwx.info

Track history (hours):
 
Tides and Currents Weather Stations Pressure Air Temp Water Temp Dewpoint Dewpoint Depression Visibility Wind Speed Wind Dir Waves Ship Positions

Drifting buoy 52594

Last reported at 2018-Feb-21 05:00 UTC. Time now 2018-Feb-21 06:56 UTC.
Position N 36°27' W 141°30'.

Water temperature 14.3 ° C

Date/timePositionNaut miles runAvg speedWind from/ knotsBaromVisibWave heightAir tempDewpointWater temp
2018-Feb-21 05:00N 36°27' W 141°30'1 0.8 14.3
2018-Feb-21 04:00N 36°28' W 141°29'1 1.1 14.3
2018-Feb-21 03:00N 36°28' W 141°28'0 0.0 14.3
2018-Feb-21 02:00N 36°28' W 141°28'0 0.0 14.3
2018-Feb-21 00:00N 36°28' W 141°28'2 0.3 14.4
2018-Feb-20 19:00N 36°28' W 141°26'1 0.4 14.2
2018-Feb-20 16:00N 36°27' W 141°25'0 0.5 14.2
2018-Feb-20 15:00N 36°27' W 141°25'0 0.5 14.2
2018-Feb-20 14:00N 36°27' W 141°24'2 1.6 14.2
2018-Feb-20 13:00N 36°28' W 141°22'2 2.0 14.2
2018-Feb-20 12:00N 36°27' W 141°25'2 0.4 14.2
2018-Feb-20 07:00N 36°28' W 141°22'0 0.0 14.3
2018-Feb-20 06:00N 36°28' W 141°22'0 0.5 14.3
2018-Feb-20 05:00N 36°28' W 141°22'1 0.8 14.3
2018-Feb-20 04:00N 36°27' W 141°21'1 0.7 14.3
2018-Feb-20 02:00N 36°27' W 141°19'0 0.0 14.3
2018-Feb-20 01:00N 36°27' W 141°19'1 0.8 14.3
2018-Feb-20 00:00N 36°28' W 141°19'1 1.4 14.4
2018-Feb-19 23:00N 36°28' W 141°17'0 0.0 14.4
2018-Feb-19 22:00N 36°28' W 141°17'0 0.0 14.3
2018-Feb-19 20:00N 36°28' W 141°17'1 0.8 14.2
2018-Feb-19 19:00N 36°28' W 141°16'0 0.5 14.2
2018-Feb-19 18:00N 36°28' W 141°16'0 0.5 14.2
2018-Feb-19 17:00N 36°28' W 141°15'0 0.5 14.2
2018-Feb-19 16:00N 36°28' W 141°16'1 1.4 14.2
2018-Feb-19 15:00N 36°28' W 141°14'0 0.0 14.3
2018-Feb-19 14:00N 36°28' W 141°14'3 3.4 14.3
2018-Feb-19 13:00N 36°30' W 141°10'3 3.1 14.3
2018-Feb-19 12:00N 36°29' W 141°14'4 0.7 14.3
2018-Feb-19 07:00N 36°30' W 141°10'0 0.5 14.4
2018-Feb-19 06:00N 36°30' W 141°09'2 1.6 14.4
2018-Feb-19 05:00N 36°31' W 141°07'0 0.5 14.4
2018-Feb-19 04:00N 36°31' W 141°08'1 1.1 14.4
2018-Feb-19 03:00N 36°31' W 141°07'0 0.5 14.4
2018-Feb-19 02:00N 36°31' W 141°07'1 1.1 14.4
2018-Feb-19 01:00N 36°32' W 141°06'1 0.8 14.4
2018-Feb-19 00:00N 36°32' W 141°05'0 0.0 14.4
2018-Feb-18 23:00N 36°32' W 141°05'0 0.0 14.3
2018-Feb-18 22:00N 36°32' W 141°05'2 0.9 14.3
2018-Feb-18 20:00N 36°34' W 141°04'0 0.2 14.3
2018-Feb-18 18:00N 36°34' W 141°03'2 1.6 14.3
2018-Feb-18 17:00N 36°34' W 141°01'1 0.8 14.4
2018-Feb-18 16:00N 36°35' W 141°01'0 0.0 14.6
2018-Feb-18 15:00N 36°35' W 141°01'1 0.8 14.6
2018-Feb-18 14:00N 36°35' W 141°00'3 3.0 14.6
2018-Feb-18 13:00N 36°37' W 140°57'3 2.6 14.6
2018-Feb-18 12:00N 36°35' W 140°59'3 0.5 14.6
2018-Feb-18 07:00N 36°37' W 140°57'1 0.8 14.6
2018-Feb-18 06:00N 36°38' W 140°56'0 0.5 14.6
2018-Feb-18 05:00N 36°38' W 140°56'0 0.5 14.6
2018-Feb-18 04:00N 36°38' W 140°55'1 1.0 14.6
2018-Feb-18 03:00N 36°38' W 140°54'1 1.1 14.6
2018-Feb-18 02:00N 36°38' W 140°53'0 0.0 14.6
2018-Feb-18 01:00N 36°38' W 140°53'1 1.1 14.6
2018-Feb-18 00:00N 36°39' W 140°52'0 0.0 14.6
2018-Feb-17 23:00N 36°39' W 140°52'1 0.8 14.6
2018-Feb-17 22:00N 36°40' W 140°51'0 0.2 14.6
2018-Feb-17 20:00N 36°40' W 140°50'0 0.0 14.5
2018-Feb-17 19:00N 36°40' W 140°50'0 0.5 14.4
2018-Feb-17 18:00N 36°40' W 140°50'1 0.6 14.4
2018-Feb-17 17:00N 36°39' W 140°50'1 1.1 14.4
2018-Feb-17 16:00N 36°38' W 140°49'0 0.5 14.4
2018-Feb-17 15:00N 36°38' W 140°48'0 0.0 14.4
2018-Feb-17 14:00N 36°38' W 140°48'0 0.5 14.4
2018-Feb-17 13:00N 36°38' W 140°47'3 2.7 14.4
2018-Feb-17 12:00N 36°37' W 140°44'2 2.5 14.4
2018-Feb-17 11:00N 36°38' W 140°47'3 0.7 14.4
2018-Feb-17 07:00N 36°37' W 140°44'1 0.8 14.5
2018-Feb-17 06:00N 36°38' W 140°44'1 1.1 14.6
2018-Feb-17 05:00N 36°37' W 140°43'0 0.0 14.6
2018-Feb-17 04:00N 36°37' W 140°43'0 0.0 14.6
2018-Feb-17 03:00N 36°37' W 140°43'0 0.0 14.6
2018-Feb-17 02:00N 36°37' W 140°43'0 0.5 14.6
2018-Feb-17 01:00N 36°37' W 140°43'1 0.8 14.6
2018-Feb-17 00:00N 36°37' W 140°43'0 0.0 14.6
2018-Feb-16 23:00N 36°37' W 140°43'2 0.7 14.6
2018-Feb-16 20:00N 36°35' W 140°42'2 1.9 14.6
2018-Feb-16 19:00N 36°34' W 140°40'0 0.2 14.6
2018-Feb-16 17:00N 36°34' W 140°40'0 0.5 14.6
2018-Feb-16 16:00N 36°34' W 140°39'1 1.1 14.6
2018-Feb-16 15:00N 36°34' W 140°38'1 0.8 14.6
2018-Feb-16 14:00N 36°35' W 140°38'0 0.0 14.6
2018-Feb-16 13:00N 36°35' W 140°38'2 2.0 14.6
2018-Feb-16 12:00N 36°33' W 140°37'2 2.0 14.6
2018-Feb-16 11:00N 36°35' W 140°38'2 0.5 14.6
2018-Feb-16 07:00N 36°33' W 140°37'1 0.6 14.8
2018-Feb-16 06:00N 36°32' W 140°37'0 0.5 14.8
2018-Feb-16 05:00N 36°32' W 140°37'1 1.0 14.8
2018-Feb-16 04:00N 36°32' W 140°35'1 0.6 14.7
2018-Feb-16 03:00N 36°32' W 140°35'0 0.0 14.8
2018-Feb-16 02:00N 36°32' W 140°35'0 0.5 14.7
2018-Feb-16 01:00N 36°32' W 140°35'1 1.1 14.8
2018-Feb-16 00:00N 36°31' W 140°34'0 0.0 14.8
2018-Feb-15 23:00N 36°31' W 140°34'3 0.6 14.8
2018-Feb-15 18:00N 36°32' W 140°30'2 1.6 14.9
2018-Feb-15 17:00N 36°32' W 140°28'1 1.4 14.9
2018-Feb-15 16:00N 36°32' W 140°26'0 0.0 14.9
2018-Feb-15 15:00N 36°32' W 140°26'0 0.5 14.9
2018-Feb-15 14:00N 36°32' W 140°26'3 1.5 14.9
2018-Feb-15 12:00N 36°32' W 140°22'2 2.5 14.9
2018-Feb-15 11:00N 36°32' W 140°25'2 0.6 14.9
2018-Feb-15 07:00N 36°32' W 140°22'1 1.1 14.9
2018-Feb-15 06:00N 36°31' W 140°21'0 0.5 14.9
2018-Feb-15 05:00N 36°31' W 140°20'1 0.6 14.9
2018-Feb-15 03:00N 36°32' W 140°19'1 1.1 14.9
2018-Feb-15 02:00N 36°31' W 140°18'1 1.1 14.9
2018-Feb-15 01:00N 36°32' W 140°17'0 0.0 14.9
2018-Feb-15 00:00N 36°32' W 140°17'0 0.0 14.9
2018-Feb-14 23:00N 36°32' W 140°17'1 0.4 14.9
2018-Feb-14 20:00N 36°32' W 140°16'1 1.0 14.8
2018-Feb-14 19:00N 36°32' W 140°14'0 0.5 14.8
2018-Feb-14 18:00N 36°32' W 140°14'1 1.4 14.8
2018-Feb-14 17:00N 36°32' W 140°12'0 0.0 14.8
2018-Feb-14 16:00N 36°32' W 140°12'0 0.0 14.8
2018-Feb-14 15:00N 36°32' W 140°12'1 1.1 14.8
2018-Feb-14 14:00N 36°33' W 140°11'0 0.5 14.8
2018-Feb-14 13:00N 36°33' W 140°10'1 1.1 14.9
2018-Feb-14 12:00N 36°34' W 140°09'0 0.0 14.8
2018-Feb-14 07:00N 36°34' W 140°09'1 0.8 14.8
2018-Feb-14 06:00N 36°34' W 140°08'1 1.0 14.7
2018-Feb-14 05:00N 36°34' W 140°07'1 0.6 14.7
2018-Feb-14 04:00N 36°35' W 140°07'0 0.5 14.7
2018-Feb-14 03:00N 36°35' W 140°07'1 1.3 14.7
2018-Feb-14 02:00N 36°36' W 140°06'0 0.5 14.7
2018-Feb-14 01:00N 36°36' W 140°05'0 0.0 14.7
2018-Feb-14 00:00N 36°36' W 140°05'0 0.0 14.7
2018-Feb-13 23:00N 36°36' W 140°05'2 0.6 14.7
2018-Feb-13 20:00N 36°38' W 140°05'1 0.5 14.6
2018-Feb-13 18:00N 36°38' W 140°04'0 0.0 14.6
2018-Feb-13 17:00N 36°38' W 140°04'1 0.5 14.6
2018-Feb-13 15:00N 36°38' W 140°03'0 0.0 14.6
2018-Feb-13 14:00N 36°38' W 140°03'1 0.8 14.6
2018-Feb-13 13:00N 36°38' W 140°02'0 0.0 14.6
2018-Feb-13 12:00N 36°38' W 140°02'4 0.7 14.6
2018-Feb-13 07:00N 36°41' W 140°00'0 0.0 14.6
2018-Feb-13 06:00N 36°41' W 140°00'0 0.0 14.6
2018-Feb-13 05:00N 36°41' W 140°00'0 0.0 14.6
2018-Feb-13 04:00N 36°41' W 140°00'1 0.8 14.6
2018-Feb-13 03:00N 36°42' W 139°59'0 0.0 14.6
2018-Feb-13 02:00N 36°42' W 139°59'1 0.3 14.6
2018-Feb-13 00:00N 36°43' W 139°59'2 0.5 14.6
2018-Feb-12 20:00N 36°44' W 139°58'0 0.0 14.6
2018-Feb-12 19:00N 36°44' W 139°58'1 0.8 14.4
2018-Feb-12 18:00N 36°45' W 139°58'1 0.8 14.2
2018-Feb-12 17:00N 36°46' W 139°57'0 0.5 14.1
2018-Feb-12 16:00N 36°46' W 139°56'0 0.5 14.0
2018-Feb-12 15:00N 36°46' W 139°56'0 0.0 14.2
2018-Feb-12 14:00N 36°46' W 139°56'3 3.0 14.2
2018-Feb-12 13:00N 36°47' W 139°53'2 2.3 14.2
2018-Feb-12 12:00N 36°46' W 139°55'3 0.7 14.2
2018-Feb-12 07:00N 36°48' W 139°52'1 0.8 14.3
2018-Feb-12 06:00N 36°49' W 139°51'1 1.1 14.3
2018-Feb-12 05:00N 36°49' W 139°50'0 0.0 14.3
2018-Feb-12 04:00N 36°49' W 139°50'0 0.5 14.3
2018-Feb-12 03:00N 36°49' W 139°49'0 0.5 14.3
2018-Feb-12 02:00N 36°49' W 139°49'1 1.1 14.3
2018-Feb-12 01:00N 36°50' W 139°47'0 0.5 14.4
2018-Feb-12 00:00N 36°50' W 139°48'2 1.5 14.4
2018-Feb-11 23:00N 36°51' W 139°47'0 0.0 14.4
2018-Feb-11 22:00N 36°51' W 139°47'1 0.6 14.3
2018-Feb-11 20:00N 36°52' W 139°46'0 0.5 14.3
2018-Feb-11 19:00N 36°52' W 139°45'0 0.5 14.3
2018-Feb-11 18:00N 36°52' W 139°44'2 1.0 14.4
2018-Feb-11 16:00N 36°52' W 139°42'0 0.5 14.4
2018-Feb-11 15:00N 36°52' W 139°41'1 0.6 14.4
2018-Feb-11 14:00N 36°52' W 139°41'3 3.4 14.4
2018-Feb-11 13:00N 36°53' W 139°37'3 2.7 14.4
2018-Feb-11 12:00N 36°52' W 139°40'3 0.5 14.4
2018-Feb-11 07:00N 36°53' W 139°37'0 0.5 14.5
2018-Feb-11 06:00N 36°53' W 139°37'0 0.0 14.4
2018-Feb-11 05:00N 36°53' W 139°37'   14.5
Track history (hours):
 
Tides and Currents Weather Stations Pressure Air Temp Water Temp Dewpoint Dewpoint Depression Visibility Wind Speed Wind Dir Waves Ship Positions

Drifting buoy 52594

Last reported at 2018-Feb-21 05:00 UTC. Time now 2018-Feb-21 06:56 UTC.
Position N 36°27' W 141°30'.

Water temperature 14.3 ° C

Date/timePositionNaut miles runAvg speedWind from/ knotsBaromVisibWave heightAir tempDewpointWater temp
2018-Feb-21 05:00N 36°27' W 141°30'1 0.8 14.3
2018-Feb-21 04:00N 36°28' W 141°29'1 1.1 14.3
2018-Feb-21 03:00N 36°28' W 141°28'0 0.0 14.3
2018-Feb-21 02:00N 36°28' W 141°28'0 0.0 14.3
2018-Feb-21 00:00N 36°28' W 141°28'2 0.3 14.4
2018-Feb-20 19:00N 36°28' W 141°26'1 0.4 14.2
2018-Feb-20 16:00N 36°27' W 141°25'0 0.5 14.2
2018-Feb-20 15:00N 36°27' W 141°25'0 0.5 14.2
2018-Feb-20 14:00N 36°27' W 141°24'2 1.6 14.2
2018-Feb-20 13:00N 36°28' W 141°22'2 2.0 14.2
2018-Feb-20 12:00N 36°27' W 141°25'2 0.4 14.2
2018-Feb-20 07:00N 36°28' W 141°22'0 0.0 14.3
2018-Feb-20 06:00N 36°28' W 141°22'0 0.5 14.3
2018-Feb-20 05:00N 36°28' W 141°22'1 0.8 14.3
2018-Feb-20 04:00N 36°27' W 141°21'1 0.7 14.3
2018-Feb-20 02:00N 36°27' W 141°19'0 0.0 14.3
2018-Feb-20 01:00N 36°27' W 141°19'1 0.8 14.3
2018-Feb-20 00:00N 36°28' W 141°19'1 1.4 14.4
2018-Feb-19 23:00N 36°28' W 141°17'0 0.0 14.4
2018-Feb-19 22:00N 36°28' W 141°17'0 0.0 14.3
2018-Feb-19 20:00N 36°28' W 141°17'1 0.8 14.2
2018-Feb-19 19:00N 36°28' W 141°16'0 0.5 14.2
2018-Feb-19 18:00N 36°28' W 141°16'0 0.5 14.2
2018-Feb-19 17:00N 36°28' W 141°15'0 0.5 14.2
2018-Feb-19 16:00N 36°28' W 141°16'1 1.4 14.2
2018-Feb-19 15:00N 36°28' W 141°14'0 0.0 14.3
2018-Feb-19 14:00N 36°28' W 141°14'3 3.4 14.3
2018-Feb-19 13:00N 36°30' W 141°10'3 3.1 14.3
2018-Feb-19 12:00N 36°29' W 141°14'4 0.7 14.3
2018-Feb-19 07:00N 36°30' W 141°10'0 0.5 14.4
2018-Feb-19 06:00N 36°30' W 141°09'2 1.6 14.4
2018-Feb-19 05:00N 36°31' W 141°07'0 0.5 14.4
2018-Feb-19 04:00N 36°31' W 141°08'1 1.1 14.4
2018-Feb-19 03:00N 36°31' W 141°07'0 0.5 14.4
2018-Feb-19 02:00N 36°31' W 141°07'1 1.1 14.4
2018-Feb-19 01:00N 36°32' W 141°06'1 0.8 14.4
2018-Feb-19 00:00N 36°32' W 141°05'0 0.0 14.4
2018-Feb-18 23:00N 36°32' W 141°05'0 0.0 14.3
2018-Feb-18 22:00N 36°32' W 141°05'2 0.9 14.3
2018-Feb-18 20:00N 36°34' W 141°04'0 0.2 14.3
2018-Feb-18 18:00N 36°34' W 141°03'2 1.6 14.3
2018-Feb-18 17:00N 36°34' W 141°01'1 0.8 14.4
2018-Feb-18 16:00N 36°35' W 141°01'0 0.0 14.6
2018-Feb-18 15:00N 36°35' W 141°01'1 0.8 14.6
2018-Feb-18 14:00N 36°35' W 141°00'3 3.0 14.6
2018-Feb-18 13:00N 36°37' W 140°57'3 2.6 14.6
2018-Feb-18 12:00N 36°35' W 140°59'3 0.5 14.6
2018-Feb-18 07:00N 36°37' W 140°57'1 0.8 14.6
2018-Feb-18 06:00N 36°38' W 140°56'0 0.5 14.6
2018-Feb-18 05:00N 36°38' W 140°56'0 0.5 14.6
2018-Feb-18 04:00N 36°38' W 140°55'1 1.0 14.6
2018-Feb-18 03:00N 36°38' W 140°54'1 1.1 14.6
2018-Feb-18 02:00N 36°38' W 140°53'0 0.0 14.6
2018-Feb-18 01:00N 36°38' W 140°53'1 1.1 14.6
2018-Feb-18 00:00N 36°39' W 140°52'0 0.0 14.6
2018-Feb-17 23:00N 36°39' W 140°52'1 0.8 14.6
2018-Feb-17 22:00N 36°40' W 140°51'0 0.2 14.6
2018-Feb-17 20:00N 36°40' W 140°50'0 0.0 14.5
2018-Feb-17 19:00N 36°40' W 140°50'0 0.5 14.4
2018-Feb-17 18:00N 36°40' W 140°50'1 0.6 14.4
2018-Feb-17 17:00N 36°39' W 140°50'1 1.1 14.4
2018-Feb-17 16:00N 36°38' W 140°49'0 0.5 14.4
2018-Feb-17 15:00N 36°38' W 140°48'0 0.0 14.4
2018-Feb-17 14:00N 36°38' W 140°48'0 0.5 14.4
2018-Feb-17 13:00N 36°38' W 140°47'3 2.7 14.4
2018-Feb-17 12:00N 36°37' W 140°44'2 2.5 14.4
2018-Feb-17 11:00N 36°38' W 140°47'3 0.7 14.4
2018-Feb-17 07:00N 36°37' W 140°44'1 0.8 14.5
2018-Feb-17 06:00N 36°38' W 140°44'1 1.1 14.6
2018-Feb-17 05:00N 36°37' W 140°43'0 0.0 14.6
2018-Feb-17 04:00N 36°37' W 140°43'0 0.0 14.6
2018-Feb-17 03:00N 36°37' W 140°43'0 0.0 14.6
2018-Feb-17 02:00N 36°37' W 140°43'0 0.5 14.6
2018-Feb-17 01:00N 36°37' W 140°43'1 0.8 14.6
2018-Feb-17 00:00N 36°37' W 140°43'0 0.0 14.6
2018-Feb-16 23:00N 36°37' W 140°43'2 0.7 14.6
2018-Feb-16 20:00N 36°35' W 140°42'2 1.9 14.6
2018-Feb-16 19:00N 36°34' W 140°40'0 0.2 14.6
2018-Feb-16 17:00N 36°34' W 140°40'0 0.5 14.6
2018-Feb-16 16:00N 36°34' W 140°39'1 1.1 14.6
2018-Feb-16 15:00N 36°34' W 140°38'1 0.8 14.6
2018-Feb-16 14:00N 36°35' W 140°38'0 0.0 14.6
2018-Feb-16 13:00N 36°35' W 140°38'2 2.0 14.6
2018-Feb-16 12:00N 36°33' W 140°37'2 2.0 14.6
2018-Feb-16 11:00N 36°35' W 140°38'2 0.5 14.6
2018-Feb-16 07:00N 36°33' W 140°37'1 0.6 14.8
2018-Feb-16 06:00N 36°32' W 140°37'0 0.5 14.8
2018-Feb-16 05:00N 36°32' W 140°37'1 1.0 14.8
2018-Feb-16 04:00N 36°32' W 140°35'1 0.6 14.7
2018-Feb-16 03:00N 36°32' W 140°35'0 0.0 14.8
2018-Feb-16 02:00N 36°32' W 140°35'0 0.5 14.7
2018-Feb-16 01:00N 36°32' W 140°35'1 1.1 14.8
2018-Feb-16 00:00N 36°31' W 140°34'0 0.0 14.8
2018-Feb-15 23:00N 36°31' W 140°34'3 0.6 14.8
2018-Feb-15 18:00N 36°32' W 140°30'2 1.6 14.9
2018-Feb-15 17:00N 36°32' W 140°28'1 1.4 14.9
2018-Feb-15 16:00N 36°32' W 140°26'0 0.0 14.9
2018-Feb-15 15:00N 36°32' W 140°26'0 0.5 14.9
2018-Feb-15 14:00N 36°32' W 140°26'3 1.5 14.9
2018-Feb-15 12:00N 36°32' W 140°22'2 2.5 14.9
2018-Feb-15 11:00N 36°32' W 140°25'2 0.6 14.9
2018-Feb-15 07:00N 36°32' W 140°22'1 1.1 14.9
2018-Feb-15 06:00N 36°31' W 140°21'0 0.5 14.9
2018-Feb-15 05:00N 36°31' W 140°20'1 0.6 14.9
2018-Feb-15 03:00N 36°32' W 140°19'1 1.1 14.9
2018-Feb-15 02:00N 36°31' W 140°18'1 1.1 14.9
2018-Feb-15 01:00N 36°32' W 140°17'0 0.0 14.9
2018-Feb-15 00:00N 36°32' W 140°17'0 0.0 14.9
2018-Feb-14 23:00N 36°32' W 140°17'1 0.4 14.9
2018-Feb-14 20:00N 36°32' W 140°16'1 1.0 14.8
2018-Feb-14 19:00N 36°32' W 140°14'0 0.5 14.8
2018-Feb-14 18:00N 36°32' W 140°14'1 1.4 14.8
2018-Feb-14 17:00N 36°32' W 140°12'0 0.0 14.8
2018-Feb-14 16:00N 36°32' W 140°12'0 0.0 14.8
2018-Feb-14 15:00N 36°32' W 140°12'1 1.1 14.8
2018-Feb-14 14:00N 36°33' W 140°11'0 0.5 14.8
2018-Feb-14 13:00N 36°33' W 140°10'1 1.1 14.9
2018-Feb-14 12:00N 36°34' W 140°09'0 0.0 14.8
2018-Feb-14 07:00N 36°34' W 140°09'1 0.8 14.8
2018-Feb-14 06:00N 36°34' W 140°08'1 1.0 14.7
2018-Feb-14 05:00N 36°34' W 140°07'1 0.6 14.7
2018-Feb-14 04:00N 36°35' W 140°07'0 0.5 14.7
2018-Feb-14 03:00N 36°35' W 140°07'1 1.3 14.7
2018-Feb-14 02:00N 36°36' W 140°06'0 0.5 14.7
2018-Feb-14 01:00N 36°36' W 140°05'0 0.0 14.7
2018-Feb-14 00:00N 36°36' W 140°05'0 0.0 14.7
2018-Feb-13 23:00N 36°36' W 140°05'2 0.6 14.7
2018-Feb-13 20:00N 36°38' W 140°05'1 0.5 14.6
2018-Feb-13 18:00N 36°38' W 140°04'0 0.0 14.6
2018-Feb-13 17:00N 36°38' W 140°04'1 0.5 14.6
2018-Feb-13 15:00N 36°38' W 140°03'0 0.0 14.6
2018-Feb-13 14:00N 36°38' W 140°03'1 0.8 14.6
2018-Feb-13 13:00N 36°38' W 140°02'0 0.0 14.6
2018-Feb-13 12:00N 36°38' W 140°02'4 0.7 14.6
2018-Feb-13 07:00N 36°41' W 140°00'0 0.0 14.6
2018-Feb-13 06:00N 36°41' W 140°00'0 0.0 14.6
2018-Feb-13 05:00N 36°41' W 140°00'0 0.0 14.6
2018-Feb-13 04:00N 36°41' W 140°00'1 0.8 14.6
2018-Feb-13 03:00N 36°42' W 139°59'0 0.0 14.6
2018-Feb-13 02:00N 36°42' W 139°59'1 0.3 14.6
2018-Feb-13 00:00N 36°43' W 139°59'2 0.5 14.6
2018-Feb-12 20:00N 36°44' W 139°58'0 0.0 14.6
2018-Feb-12 19:00N 36°44' W 139°58'1 0.8 14.4
2018-Feb-12 18:00N 36°45' W 139°58'1 0.8 14.2
2018-Feb-12 17:00N 36°46' W 139°57'0 0.5 14.1
2018-Feb-12 16:00N 36°46' W 139°56'0 0.5 14.0
2018-Feb-12 15:00N 36°46' W 139°56'0 0.0 14.2
2018-Feb-12 14:00N 36°46' W 139°56'3 3.0 14.2
2018-Feb-12 13:00N 36°47' W 139°53'2 2.3 14.2
2018-Feb-12 12:00N 36°46' W 139°55'3 0.7 14.2
2018-Feb-12 07:00N 36°48' W 139°52'1 0.8 14.3
2018-Feb-12 06:00N 36°49' W 139°51'1 1.1 14.3
2018-Feb-12 05:00N 36°49' W 139°50'0 0.0 14.3
2018-Feb-12 04:00N 36°49' W 139°50'0 0.5 14.3
2018-Feb-12 03:00N 36°49' W 139°49'0 0.5 14.3
2018-Feb-12 02:00N 36°49' W 139°49'1 1.1 14.3
2018-Feb-12 01:00N 36°50' W 139°47'0 0.5 14.4
2018-Feb-12 00:00N 36°50' W 139°48'2 1.5 14.4
2018-Feb-11 23:00N 36°51' W 139°47'0 0.0 14.4
2018-Feb-11 22:00N 36°51' W 139°47'1 0.6 14.3
2018-Feb-11 20:00N 36°52' W 139°46'0 0.5 14.3
2018-Feb-11 19:00N 36°52' W 139°45'0 0.5 14.3
2018-Feb-11 18:00N 36°52' W 139°44'2 1.0 14.4
2018-Feb-11 16:00N 36°52' W 139°42'0 0.5 14.4
2018-Feb-11 15:00N 36°52' W 139°41'1 0.6 14.4
2018-Feb-11 14:00N 36°52' W 139°41'3 3.4 14.4
2018-Feb-11 13:00N 36°53' W 139°37'3 2.7 14.4
2018-Feb-11 12:00N 36°52' W 139°40'3 0.5 14.4
2018-Feb-11 07:00N 36°53' W 139°37'0 0.5 14.5
2018-Feb-11 06:00N 36°53' W 139°37'0 0.0 14.4
2018-Feb-11 05:00N 36°53' W 139°37'   14.5

Dump ship's entire track history